Time;durP1;ratioP1;P1;durP2;ratioP2;P2;SDS_P1;SDS_P2;PMS_P1;PMS_P2;Temp;Humidity;BMP_temperature;BMP_pressure;BME280_temperature;BME280_humidity;BME280_pressure;Samples;Min_cycle;Max_cycle;Signal;HPM_P1;HPM_P2
2023/10/14 00:02:32;;;;;;;15.10;7.40;;;;;;;16.28;92.32;99347.84;131274;1264;108642;-75
2023/10/14 00:05:38;;;;;;;11.00;7.30;;;;;;;16.26;92.20;99342.65;131098;1250;108631;-75
2023/10/14 00:08:54;;;;;;;13.70;7.30;;;;;;;16.22;92.30;99341.00;131123;1254;108075;-76
2023/10/14 00:12:03;;;;;;;11.40;6.80;;;;;;;16.21;92.37;99337.58;131080;1253;106570;-75
2023/10/14 00:15:10;;;;;;;14.30;7.20;;;;;;;16.21;92.24;99332.92;131069;1254;107106;-75
2023/10/14 00:18:17;;;;;;;13.10;7.50;;;;;;;16.20;92.21;99328.54;131161;1264;106744;-75
2023/10/14 00:21:23;;;;;;;12.40;7.00;;;;;;;16.18;92.20;99329.50;131087;1259;108019;-75
2023/10/14 00:24:28;;;;;;;11.50;7.00;;;;;;;16.16;92.20;99320.37;131208;1253;106867;-75
2023/10/14 00:27:35;;;;;;;13.60;6.40;;;;;;;16.15;92.33;99318.25;131105;1253;106683;-76
2023/10/14 00:30:41;;;;;;;13.90;7.30;;;;;;;16.16;92.17;99318.34;131205;1253;108615;-76
2023/10/14 00:33:47;;;;;;;16.30;8.10;;;;;;;16.16;92.06;99311.55;131172;1253;107919;-77
2023/10/14 00:36:55;;;;;;;14.50;6.90;;;;;;;16.15;92.06;99306.12;131190;1253;108649;-76
2023/10/14 00:40:10;;;;;;;15.70;6.90;;;;;;;16.13;92.12;99303.72;131107;1253;107563;-76
2023/10/14 00:43:16;;;;;;;18.50;8.10;;;;;;;16.12;92.11;99297.77;131098;1253;107731;-76
2023/10/14 00:46:23;;;;;;;12.00;7.10;;;;;;;16.12;92.02;99300.21;131172;1254;107780;-76
2023/10/14 00:49:31;;;;;;;10.80;6.90;;;;;;;16.13;91.97;99297.10;131206;1262;108567;-77
2023/10/14 00:52:37;;;;;;;13.50;6.80;;;;;;;16.11;91.91;99288.16;131068;1253;107410;-76
2023/10/14 00:55:54;;;;;;;12.30;6.50;;;;;;;16.08;91.85;99284.94;131152;1250;107626;-77
2023/10/14 00:59:04;;;;;;;14.50;7.10;;;;;;;16.07;91.85;99278.27;131048;1251;107579;-77
2023/10/14 01:02:11;;;;;;;13.80;6.90;;;;;;;16.06;91.75;99272.41;131082;1255;108653;-77
2023/10/14 01:05:19;;;;;;;12.30;6.80;;;;;;;16.06;91.72;99274.23;131038;1254;106898;-75
2023/10/14 01:08:29;;;;;;;10.60;6.40;;;;;;;16.04;91.62;99269.14;131213;1253;107268;-76
2023/10/14 01:11:35;;;;;;;11.80;6.40;;;;;;;16.02;91.66;99265.14;131089;1251;107477;-76
2023/10/14 01:14:41;;;;;;;13.30;6.70;;;;;;;16.01;91.46;99261.21;131221;1250;108498;-76
2023/10/14 01:17:47;;;;;;;11.40;7.40;;;;;;;16.01;91.44;99258.48;131117;1251;107510;-76
2023/10/14 01:20:52;;;;;;;10.90;6.70;;;;;;;16.01;91.43;99253.52;131234;1253;108755;-76
2023/10/14 01:23:59;;;;;;;10.40;6.90;;;;;;;16.00;91.44;99245.02;131147;1265;108469;-76
2023/10/14 01:27:05;;;;;;;13.40;6.70;;;;;;;15.97;91.33;99238.41;131086;1251;107178;-75
2023/10/14 01:30:18;;;;;;;12.10;7.00;;;;;;;15.92;91.39;99232.98;131080;1253;107885;-76
2023/10/14 01:33:25;;;;;;;11.80;6.40;;;;;;;15.90;91.26;99236.09;131020;1251;106729;-75
2023/10/14 01:36:37;;;;;;;10.60;7.20;;;;;;;15.89;91.11;99226.73;131069;1250;106782;-76
2023/10/14 01:39:48;;;;;;;9.20;6.30;;;;;;;15.89;91.23;99222.46;131219;1253;106581;-76
2023/10/14 01:42:58;;;;;;;14.40;6.70;;;;;;;15.88;91.10;99218.80;131145;1253;107619;-76
2023/10/14 01:46:08;;;;;;;10.20;6.20;;;;;;;15.85;91.05;99209.54;131053;1256;107685;-76
2023/10/14 01:49:19;;;;;;;12.00;6.60;;;;;;;15.85;90.97;99203.61;131100;1251;106370;-76
2023/10/14 01:52:25;;;;;;;12.30;6.40;;;;;;;15.85;90.96;99194.48;131094;1250;107045;-76
2023/10/14 01:55:32;;;;;;;9.50;6.30;;;;;;;15.86;90.87;99187.67;131115;1250;106451;-76
2023/10/14 01:58:40;;;;;;;12.30;6.60;;;;;;;15.86;90.81;99186.67;131110;1251;108358;-77
2023/10/14 02:01:47;;;;;;;11.50;6.00;;;;;;;15.84;90.65;99184.28;131108;1254;108694;-76
2023/10/14 02:04:56;;;;;;;17.30;6.90;;;;;;;15.83;90.66;99177.27;131160;1254;106921;-75
2023/10/14 02:08:02;;;;;;;11.10;6.80;;;;;;;15.83;90.50;99174.16;131101;1249;107013;-76
2023/10/14 02:11:07;;;;;;;9.50;6.10;;;;;;;15.85;90.56;99172.83;131121;1250;107534;-76
2023/10/14 02:14:15;;;;;;;14.10;6.80;;;;;;;15.85;90.31;99165.13;131139;1249;107678;-76
2023/10/14 02:17:24;;;;;;;12.40;6.10;;;;;;;15.83;90.21;99160.22;131085;1253;108676;-75
2023/10/14 02:20:38;;;;;;;10.90;6.00;;;;;;;15.82;90.24;99159.14;131169;1250;107717;-76
2023/10/14 02:23:47;;;;;;;7.90;6.00;;;;;;;15.81;90.15;99157.57;131186;1253;106809;-76
2023/10/14 02:26:53;;;;;;;12.70;6.00;;;;;;;15.82;90.12;99148.55;131131;1253;107453;-76
2023/10/14 02:30:00;;;;;;;10.80;6.50;;;;;;;15.81;90.11;99145.58;131014;1257;106653;-75
2023/10/14 02:33:07;;;;;;;10.00;6.30;;;;;;;15.80;90.03;99148.23;131196;1251;106810;-77
2023/10/14 02:36:15;;;;;;;12.40;6.60;;;;;;;15.77;89.96;99148.26;131001;1251;107517;-77
2023/10/14 02:39:27;;;;;;;13.20;6.00;;;;;;;15.74;90.00;99140.15;131203;1253;106508;-76
2023/10/14 02:42:33;;;;;;;9.40;6.00;;;;;;;15.73;89.78;99139.76;131116;1253;107298;-76
2023/10/14 02:45:40;;;;;;;11.80;6.80;;;;;;;15.73;89.78;99133.77;131107;1251;107506;-76
2023/10/14 02:48:54;;;;;;;11.50;6.90;;;;;;;15.74;89.79;99132.90;131178;1254;108179;-76
2023/10/14 02:52:03;;;;;;;9.60;7.00;;;;;;;15.74;89.63;99125.29;131142;1249;107848;-77
2023/10/14 02:55:21;;;;;;;12.90;7.10;;;;;;;15.72;89.55;99121.73;131077;1253;107737;-77
2023/10/14 02:58:29;;;;;;;11.20;6.30;;;;;;;15.69;89.41;99111.17;131153;1250;106492;-76
2023/10/14 03:01:35;;;;;;;13.30;7.20;;;;;;;15.68;89.35;99106.84;131159;1253;107687;-76
2023/10/14 03:04:49;;;;;;;10.20;6.10;;;;;;;15.69;89.42;99105.60;131234;1254;108664;-76
2023/10/14 03:07:54;;;;;;;11.30;6.70;;;;;;;15.70;89.20;99098.80;131161;1251;107717;-77
2023/10/14 03:11:15;;;;;;;12.40;6.60;;;;;;;15.70;89.15;99095.30;131123;1253;107694;-77
2023/10/14 03:14:21;;;;;;;13.80;6.90;;;;;;;15.69;89.05;99084.13;131090;1256;107705;-76
2023/10/14 03:17:39;;;;;;;11.90;7.00;;;;;;;15.70;89.02;99078.95;131190;1253;108393;-76
2023/10/14 03:20:58;;;;;;;11.30;6.50;;;;;;;15.71;88.93;99074.63;131086;1253;106777;-77
2023/10/14 03:24:04;;;;;;;13.10;6.90;;;;;;;15.72;88.84;99071.36;131148;1256;108664;-76
2023/10/14 03:27:10;;;;;;;11.30;7.20;;;;;;;15.71;88.83;99073.10;131228;1266;106670;-76
2023/10/14 03:30:18;;;;;;;10.70;6.60;;;;;;;15.67;88.69;99078.00;131117;1253;108639;-76
2023/10/14 03:33:27;;;;;;;10.00;6.50;;;;;;;15.64;88.79;99067.88;131187;1251;107272;-76
2023/10/14 03:36:33;;;;;;;11.90;6.20;;;;;;;15.63;88.78;99053.75;131240;1250;107743;-76
2023/10/14 03:39:40;;;;;;;12.00;6.60;;;;;;;15.64;88.86;99042.13;131131;1251;107120;-76
2023/10/14 03:42:54;;;;;;;11.30;6.80;;;;;;;15.65;88.69;99040.09;131130;1254;109463;-77
2023/10/14 03:46:04;;;;;;;12.40;7.00;;;;;;;15.63;88.65;99032.73;131109;1253;108466;-76
2023/10/14 03:49:20;;;;;;;10.10;6.40;;;;;;;15.60;88.57;99032.14;131176;1253;107875;-76
2023/10/14 03:52:26;;;;;;;10.80;6.60;;;;;;;15.57;88.49;99024.16;131116;1251;107604;-76
2023/10/14 03:55:32;;;;;;;11.00;6.80;;;;;;;15.56;88.56;99019.78;131150;1254;106754;-77
2023/10/14 03:58:41;;;;;;;15.00;7.20;;;;;;;15.57;88.57;99019.24;131089;1250;107759;-76
2023/10/14 04:01:47;;;;;;;12.90;6.40;;;;;;;15.58;88.53;99015.17;131098;1251;107636;-78
2023/10/14 04:05:01;;;;;;;12.00;7.00;;;;;;;15.57;88.58;99010.44;131101;1250;108523;-76
2023/10/14 04:08:09;;;;;;;15.40;6.80;;;;;;;15.55;88.54;98999.98;131096;1251;107088;-77
2023/10/14 04:11:16;;;;;;;11.60;6.40;;;;;;;15.53;88.35;98997.64;131219;1251;106939;-76
2023/10/14 04:14:27;;;;;;;12.00;6.50;;;;;;;15.53;88.42;98993.50;131251;1251;108403;-76
2023/10/14 04:17:33;;;;;;;9.60;6.50;;;;;;;15.54;88.45;98988.48;131528;1250;107752;-76
2023/10/14 04:20:45;;;;;;;10.70;6.70;;;;;;;15.55;88.28;98984.47;131149;1250;107696;-76
2023/10/14 04:24:08;;;;;;;11.80;7.10;;;;;;;15.55;88.17;98976.23;131150;1251;108411;-77
2023/10/14 04:27:33;;;;;;;10.80;6.60;;;;;;;15.51;88.19;98972.46;131031;1253;107578;-76
2023/10/14 04:30:42;;;;;;;10.00;6.40;;;;;;;15.46;88.28;98970.95;131043;1253;107532;-77
2023/10/14 04:33:52;;;;;;;15.60;7.00;;;;;;;15.45;88.18;98969.77;131223;1249;108499;-76
2023/10/14 04:37:07;;;;;;;11.40;6.90;;;;;;;15.43;88.29;98961.17;131156;1250;106664;-76
2023/10/14 04:40:35;;;;;;;9.80;6.60;;;;;;;15.43;88.23;98958.73;132274;1250;106984;-77
2023/10/14 04:44:00;;;;;;;13.90;6.80;;;;;;;15.40;88.33;98954.17;135384;1250;106801;-77
2023/10/14 04:47:08;;;;;;;15.60;7.10;;;;;;;15.36;88.19;98953.81;131289;1251;106822;-77
2023/10/14 04:50:14;;;;;;;12.70;6.50;;;;;;;15.33;88.14;98951.35;131330;1251;107485;-78
2023/10/14 04:53:26;;;;;;;14.90;6.50;;;;;;;15.30;88.29;98947.19;131307;1253;107727;-77
2023/10/14 04:56:32;;;;;;;12.30;6.80;;;;;;;15.30;88.26;98948.21;131041;1253;107722;-77
2023/10/14 04:59:38;;;;;;;10.40;6.50;;;;;;;15.31;88.26;98947.69;131041;1253;107133;-77
2023/10/14 05:02:45;;;;;;;11.00;7.00;;;;;;;15.30;88.20;98950.58;131061;1254;107978;-77
2023/10/14 05:05:55;;;;;;;12.10;6.50;;;;;;;15.28;88.16;98944.11;131038;1250;108547;-77
2023/10/14 05:09:09;;;;;;;13.00;6.70;;;;;;;15.26;88.19;98940.21;131055;1250;107156;-77
2023/10/14 05:12:18;;;;;;;14.30;7.10;;;;;;;15.27;88.06;98938.23;131093;1250;106360;-77
2023/10/14 05:15:26;;;;;;;11.40;7.00;;;;;;;15.29;88.16;98934.79;131051;1253;107937;-77
2023/10/14 05:18:35;;;;;;;11.30;6.60;;;;;;;15.33;87.99;98938.95;131107;1249;107240;-75
2023/10/14 05:21:43;;;;;;;13.50;7.10;;;;;;;15.35;87.96;98932.94;131073;1251;107609;-75
2023/10/14 05:24:49;;;;;;;12.40;7.00;;;;;;;15.34;87.97;98931.45;131027;1250;106905;-75
2023/10/14 05:27:56;;;;;;;12.50;6.40;;;;;;;15.33;87.82;98936.14;131090;1250;106811;-78
2023/10/14 05:31:05;;;;;;;10.80;7.20;;;;;;;15.34;87.94;98934.93;131068;1253;108541;-75
2023/10/14 05:34:12;;;;;;;11.30;6.90;;;;;;;15.37;87.91;98931.40;131067;1254;107577;-76
2023/10/14 05:37:17;;;;;;;12.00;6.90;;;;;;;15.40;87.81;98929.72;131036;1253;107187;-75
2023/10/14 05:40:24;;;;;;;11.20;6.70;;;;;;;15.42;87.72;98927.96;130988;1251;107716;-75
2023/10/14 05:43:31;;;;;;;11.90;6.70;;;;;;;15.42;87.55;98926.35;131171;1249;107225;-76
2023/10/14 05:46:37;;;;;;;12.90;7.60;;;;;;;15.43;87.55;98927.59;131176;1250;107796;-75
2023/10/14 05:49:43;;;;;;;13.30;7.60;;;;;;;15.45;87.56;98932.74;131086;1253;106973;-77
2023/10/14 05:52:49;;;;;;;11.60;6.80;;;;;;;15.50;87.51;98928.63;131004;1253;109292;-76
2023/10/14 05:56:09;;;;;;;12.80;7.50;;;;;;;15.56;87.33;98931.80;131121;1253;107657;-76
2023/10/14 05:59:15;;;;;;;13.30;7.40;;;;;;;15.60;87.32;98931.73;131097;1251;106764;-76
2023/10/14 06:02:22;;;;;;;12.70;7.00;;;;;;;15.63;87.32;98941.02;131092;1250;107766;-76
2023/10/14 06:05:30;;;;;;;13.00;7.50;;;;;;;15.65;87.18;98940.55;131198;1253;106745;-76
2023/10/14 06:08:36;;;;;;;15.30;8.70;;;;;;;15.68;87.21;98941.80;131073;1253;108240;-75
2023/10/14 06:11:42;;;;;;;13.50;8.10;;;;;;;15.76;86.98;98942.81;131034;1254;107233;-75
2023/10/14 06:14:48;;;;;;;11.40;8.00;;;;;;;15.83;87.06;98943.46;131040;1253;108608;-76
2023/10/14 06:17:55;;;;;;;12.90;7.70;;;;;;;15.89;86.87;98950.56;131101;1250;106993;-75
2023/10/14 06:21:01;;;;;;;14.50;7.70;;;;;;;15.94;86.99;98959.77;131139;1250;106499;-75
2023/10/14 06:24:10;;;;;;;12.20;7.00;;;;;;;15.97;86.84;98961.42;131018;1253;108683;-78
2023/10/14 06:27:21;;;;;;;15.60;7.40;;;;;;;16.01;86.78;98958.38;130985;1254;106639;-76
2023/10/14 06:30:27;;;;;;;14.00;7.80;;;;;;;16.07;86.73;98957.36;130991;1253;106214;-76
2023/10/14 06:33:32;;;;;;;14.00;7.50;;;;;;;16.14;86.77;98953.61;131089;1251;108090;-80
2023/10/14 06:36:38;;;;;;;12.30;7.60;;;;;;;16.23;86.76;98951.67;131148;1253;108558;-81
2023/10/14 06:39:44;;;;;;;13.20;7.80;;;;;;;16.29;86.54;98946.44;131288;1257;108361;-77
2023/10/14 06:42:50;;;;;;;13.00;7.60;;;;;;;16.35;86.44;98948.16;131090;1254;107194;-77
2023/10/14 06:45:56;;;;;;;10.40;6.80;;;;;;;16.39;86.37;98944.73;130987;1266;107577;-77
2023/10/14 06:49:02;;;;;;;9.80;7.20;;;;;;;16.45;86.15;98937.70;131008;1253;106606;-78
2023/10/14 06:52:11;;;;;;;12.00;7.50;;;;;;;16.53;86.14;98945.20;131032;1249;106846;-78
2023/10/14 06:55:21;;;;;;;11.40;7.10;;;;;;;16.61;86.12;98948.79;130973;1263;195027;-78
2023/10/14 06:58:29;;;;;;;12.20;8.50;;;;;;;16.69;86.06;98950.85;131030;1253;107649;-77
2023/10/14 07:01:34;;;;;;;11.20;7.80;;;;;;;16.76;85.77;98950.65;131117;1253;107673;-78
2023/10/14 07:04:40;;;;;;;13.60;8.20;;;;;;;16.80;85.76;98950.77;131107;1256;108159;-77
2023/10/14 07:07:47;;;;;;;12.20;7.00;;;;;;;16.85;85.61;98955.96;131263;1250;106852;-78
2023/10/14 07:10:54;;;;;;;12.10;7.50;;;;;;;16.92;85.68;98954.27;131104;1251;109431;-78
2023/10/14 07:14:00;;;;;;;13.60;7.80;;;;;;;17.01;85.53;98961.16;131062;1253;107063;-78
2023/10/14 07:17:07;;;;;;;12.90;7.60;;;;;;;17.11;85.30;98955.59;131181;1251;108815;-78
2023/10/14 07:20:13;;;;;;;13.80;8.10;;;;;;;17.19;85.18;98942.64;131041;1254;108653;-77
2023/10/14 07:23:18;;;;;;;15.30;8.00;;;;;;;17.27;85.14;98936.14;131076;1253;106776;-78
2023/10/14 07:26:29;;;;;;;13.60;8.40;;;;;;;17.33;85.06;98935.81;131209;1256;106518;-77
2023/10/14 07:29:39;;;;;;;13.60;7.40;;;;;;;17.39;85.00;98933.11;131436;1253;106756;-79
2023/10/14 07:32:48;;;;;;;16.10;7.20;;;;;;;17.48;84.89;98928.23;131220;1253;107623;-80
2023/10/14 07:35:54;;;;;;;13.30;8.10;;;;;;;17.61;84.72;98930.45;131338;1253;106667;-80
2023/10/14 07:39:02;;;;;;;11.90;7.80;;;;;;;17.75;84.58;98932.88;131234;1253;107478;-80
2023/10/14 07:42:13;;;;;;;13.80;8.40;;;;;;;17.89;84.15;98931.09;131228;1251;108425;-80
2023/10/14 07:45:19;;;;;;;16.10;9.60;;;;;;;18.04;84.11;98934.21;131274;1253;106853;-79
2023/10/14 07:48:24;;;;;;;13.10;7.70;;;;;;;18.18;84.38;98931.34;131162;1253;107260;-79
2023/10/14 07:51:30;;;;;;;14.80;8.10;;;;;;;18.35;83.94;98925.68;131090;1250;108585;-80
2023/10/14 07:54:42;;;;;;;12.50;7.70;;;;;;;18.55;83.73;98927.56;131136;1253;108445;-79
2023/10/14 07:57:49;;;;;;;11.70;7.20;;;;;;;18.73;83.56;98921.67;131114;1254;107715;-80
2023/10/14 08:00:57;;;;;;;14.00;7.70;;;;;;;18.88;82.72;98914.44;131214;1253;108119;-80
2023/10/14 08:04:07;;;;;;;12.20;8.20;;;;;;;19.00;82.48;98914.19;131047;1253;107822;-81
2023/10/14 08:07:12;;;;;;;12.30;7.60;;;;;;;19.09;82.24;98912.84;131147;1262;107927;-81
2023/10/14 08:10:18;;;;;;;12.10;7.30;;;;;;;19.14;81.30;98916.38;131105;1253;107760;-80
2023/10/14 08:13:24;;;;;;;13.30;7.10;;;;;;;19.20;81.33;98923.80;131191;1256;108649;-80
2023/10/14 08:16:30;;;;;;;11.10;7.20;;;;;;;19.36;81.71;98922.52;131186;1255;108659;-78
2023/10/14 08:19:35;;;;;;;11.60;7.10;;;;;;;19.52;81.28;98921.05;131152;1250;107812;-78
2023/10/14 08:22:45;;;;;;;10.40;6.50;;;;;;;19.67;80.76;98913.30;130992;1250;107111;-78
2023/10/14 08:25:54;;;;;;;14.10;7.80;;;;;;;19.80;80.70;98918.86;131028;1250;106884;-78
2023/10/14 08:29:01;;;;;;;13.40;7.10;;;;;;;19.94;80.41;98925.56;131008;1254;106598;-78
2023/10/14 08:32:06;;;;;;;12.10;6.80;;;;;;;20.04;80.18;98925.82;130957;1256;107579;-78
2023/10/14 08:35:17;;;;;;;10.60;7.00;;;;;;;20.11;80.14;98925.71;130999;1253;105982;-78
2023/10/14 08:38:24;;;;;;;13.00;6.20;;;;;;;20.14;80.00;98924.08;131169;1253;106865;-78
2023/10/14 08:41:34;;;;;;;10.90;6.50;;;;;;;20.16;79.76;98932.08;131066;1256;107609;-78
2023/10/14 08:44:45;;;;;;;10.60;6.60;;;;;;;20.18;79.51;98934.23;131054;1253;109145;-78
2023/10/14 08:47:54;;;;;;;10.20;6.70;;;;;;;20.19;79.11;98940.30;131098;1254;107654;-78
2023/10/14 08:51:00;;;;;;;10.30;6.20;;;;;;;20.17;78.62;98943.14;131057;1254;106755;-78
2023/10/14 08:54:10;;;;;;;10.90;6.70;;;;;;;20.17;78.54;98952.20;131000;1253;107813;-81
2023/10/14 08:57:17;;;;;;;13.90;6.80;;;;;;;20.18;78.60;98956.31;131047;1266;106879;-78
2023/10/14 09:00:24;;;;;;;10.50;6.40;;;;;;;20.23;78.09;98953.95;131008;1250;106407;-79
2023/10/14 09:03:31;;;;;;;9.70;6.90;;;;;;;20.29;77.81;98949.75;131077;1255;107780;-77
2023/10/14 09:06:37;;;;;;;11.90;6.50;;;;;;;20.35;77.57;98950.71;131100;1250;108287;-78
2023/10/14 09:09:43;;;;;;;10.50;6.40;;;;;;;20.42;77.35;98946.91;131053;1251;106720;-79
2023/10/14 09:12:58;;;;;;;12.20;6.10;;;;;;;20.50;76.87;98938.94;130966;1253;106557;-79
2023/10/14 09:16:06;;;;;;;9.30;6.30;;;;;;;20.58;76.84;98941.02;131044;1261;107778;-78
2023/10/14 09:19:12;;;;;;;10.20;6.30;;;;;;;20.64;76.68;98943.92;131065;1253;108554;-78
2023/10/14 09:22:26;;;;;;;11.70;7.30;;;;;;;20.64;75.76;98942.36;131312;1250;106755;-81
2023/10/14 09:25:32;;;;;;;9.70;6.50;;;;;;;20.67;76.09;98943.63;131989;1253;107644;-81
2023/10/14 09:28:40;;;;;;;9.90;6.20;;;;;;;20.68;75.84;98935.04;131364;1253;108607;-79
2023/10/14 09:31:47;;;;;;;9.50;6.60;;;;;;;20.72;75.59;98944.58;131548;1250;108605;-79
2023/10/14 09:34:55;;;;;;;12.80;6.20;;;;;;;20.70;75.35;98935.33;131095;1253;106463;-79
2023/10/14 09:38:00;;;;;;;10.70;6.20;;;;;;;20.68;75.44;98937.75;131131;1253;106987;-79
2023/10/14 09:41:08;;;;;;;10.00;6.70;;;;;;;20.69;74.95;98939.77;131437;1253;107180;-80
2023/10/14 09:44:15;;;;;;;8.60;6.20;;;;;;;20.69;74.77;98938.23;132719;1250;107465;-79
2023/10/14 09:47:23;;;;;;;10.40;6.70;;;;;;;20.64;74.54;98939.86;131437;1253;107902;-79
2023/10/14 09:50:30;;;;;;;11.40;6.60;;;;;;;20.56;74.61;98940.77;131501;1251;107499;-80
2023/10/14 09:53:37;;;;;;;9.90;6.10;;;;;;;20.49;74.62;98942.83;131196;1253;107798;-80
2023/10/14 09:56:44;;;;;;;9.80;6.10;;;;;;;20.40;74.70;98958.48;131142;1255;105873;-82
2023/10/14 09:59:52;;;;;;;11.40;6.00;;;;;;;20.30;74.30;98956.22;131306;1253;108703;-81
2023/10/14 10:02:58;;;;;;;12.80;6.10;;;;;;;20.24;74.31;98949.75;131086;1253;107545;-79
2023/10/14 10:06:26;;;;;;;9.80;5.50;;;;;;;20.25;74.12;98940.89;131061;1253;108581;-81
2023/10/14 10:09:54;;;;;;;9.80;5.50;;;;;;;20.29;74.07;98944.29;131093;1256;106692;-82
2023/10/14 10:13:00;;;;;;;7.80;5.40;;;;;;;20.36;73.83;98945.59;131129;1253;108632;-82
2023/10/14 10:16:07;;;;;;;8.70;5.60;;;;;;;20.46;73.66;98936.72;131219;1250;107324;-82
2023/10/14 10:19:13;;;;;;;9.60;5.60;;;;;;;20.55;73.34;98933.27;131256;1254;107541;-82
2023/10/14 10:22:21;;;;;;;9.60;5.30;;;;;;;20.62;73.39;98928.33;131195;1253;107862;-80
2023/10/14 10:25:49;;;;;;;9.80;5.20;;;;;;;20.67;72.96;98932.42;131187;1253;106588;-80
2023/10/14 10:28:59;;;;;;;9.50;5.30;;;;;;;20.71;72.75;98926.45;131117;1253;106998;-83
2023/10/14 10:32:11;;;;;;;7.20;5.10;;;;;;;20.76;72.44;98924.34;131179;1253;107944;-82
2023/10/14 10:35:19;;;;;;;10.40;5.60;;;;;;;20.82;72.03;98925.99;131144;1253;108598;-82
2023/10/14 10:38:28;;;;;;;7.20;5.50;;;;;;;20.87;71.49;98926.59;131146;1256;106861;-80
2023/10/14 10:41:37;;;;;;;8.60;5.20;;;;;;;20.92;71.92;98922.10;131061;1250;107830;-80
2023/10/14 10:44:45;;;;;;;12.00;5.60;;;;;;;20.97;71.36;98923.90;131116;1250;108350;-80
2023/10/14 10:47:56;;;;;;;14.30;5.30;;;;;;;21.00;71.21;98921.43;131233;1256;107778;-80
2023/10/14 10:51:04;;;;;;;8.30;5.20;;;;;;;21.05;71.25;98914.48;131173;1253;105774;-81
2023/10/14 10:54:12;;;;;;;11.60;5.50;;;;;;;21.08;70.76;98923.63;131181;1256;107599;-81
2023/10/14 10:57:20;;;;;;;8.00;5.30;;;;;;;21.08;70.34;98926.02;131156;1253;106753;-80
2023/10/14 11:00:26;;;;;;;10.30;5.80;;;;;;;21.07;70.66;98928.06;131194;1254;106597;-80
2023/10/14 11:03:34;;;;;;;12.60;5.50;;;;;;;21.09;70.15;98932.74;131127;1251;107668;-81
2023/10/14 11:06:41;;;;;;;10.10;5.10;;;;;;;21.10;69.96;98934.41;131239;1253;107264;-81
2023/10/14 11:09:50;;;;;;;9.90;5.70;;;;;;;21.15;69.95;98933.74;131156;1253;108586;-80
2023/10/14 11:12:56;;;;;;;8.50;4.90;;;;;;;21.20;69.56;98936.55;131110;1251;107982;-81
2023/10/14 11:16:12;;;;;;;7.50;5.00;;;;;;;21.23;69.62;98936.58;131405;1253;107764;-80
2023/10/14 11:19:20;;;;;;;8.00;5.20;;;;;;;21.28;69.61;98939.73;131320;1253;107774;-81
2023/10/14 11:22:26;;;;;;;11.40;6.00;;;;;;;21.28;69.14;98937.67;131163;1257;107703;-80
2023/10/14 11:25:36;;;;;;;12.10;6.20;;;;;;;21.25;68.69;98936.61;131423;1251;107104;-81
2023/10/14 11:28:45;;;;;;;8.90;5.00;;;;;;;21.22;68.70;98936.35;131616;1253;109315;-79
2023/10/14 11:31:53;;;;;;;9.40;5.30;;;;;;;21.19;68.86;98931.19;131605;1257;108545;-80
2023/10/14 11:34:59;;;;;;;9.20;5.30;;;;;;;21.18;68.68;98931.82;131700;1253;107696;-80
2023/10/14 11:38:08;;;;;;;10.20;5.50;;;;;;;21.16;68.72;98935.81;131691;1253;108710;-80
2023/10/14 11:41:15;;;;;;;9.60;5.50;;;;;;;21.15;68.32;98943.61;131988;1254;107157;-81
2023/10/14 11:44:21;;;;;;;8.00;5.40;;;;;;;21.15;68.41;98944.27;131248;1256;107261;-81
2023/10/14 11:47:36;;;;;;;7.60;5.30;;;;;;;21.18;68.48;98948.20;131225;1253;107033;-79
2023/10/14 11:50:41;;;;;;;11.50;5.40;;;;;;;21.23;68.53;98952.65;131961;1253;107694;-80
2023/10/14 11:53:50;;;;;;;8.00;5.30;;;;;;;21.31;68.45;98953.33;131359;1253;108266;-80
2023/10/14 11:56:56;;;;;;;7.50;5.10;;;;;;;21.38;68.12;98956.98;131239;1250;106517;-80
2023/10/14 12:00:02;;;;;;;9.20;5.30;;;;;;;21.42;67.42;98957.80;131203;1254;106700;-80
2023/10/14 12:03:13;;;;;;;10.10;5.20;;;;;;;21.49;67.62;98957.77;131293;1254;107535;-80
2023/10/14 12:06:18;;;;;;;8.20;5.40;;;;;;;21.58;67.83;98951.73;131169;1253;107642;-80
2023/10/14 12:09:24;;;;;;;9.60;5.20;;;;;;;21.64;67.50;98953.63;131218;1250;108357;-80
2023/10/14 12:12:30;;;;;;;8.80;5.00;;;;;;;21.67;66.92;98950.51;131186;1256;106620;-81
2023/10/14 12:15:37;;;;;;;6.60;4.90;;;;;;;21.68;66.60;98952.15;131192;1256;108788;-81
2023/10/14 12:18:45;;;;;;;8.90;5.40;;;;;;;21.73;66.50;98958.12;131256;1260;106938;-80
2023/10/14 12:21:51;;;;;;;8.90;5.90;;;;;;;21.77;65.98;98964.50;131192;1250;107686;-80
2023/10/14 12:24:57;;;;;;;13.90;9.00;;;;;;;21.78;65.68;98969.29;131230;1251;106792;-80
2023/10/14 12:28:03;;;;;;;10.80;6.50;;;;;;;21.75;65.39;98972.52;131184;1254;107921;-80
2023/10/14 12:31:12;;;;;;;10.10;6.50;;;;;;;21.73;64.54;98974.73;131165;1250;106800;-80
2023/10/14 12:34:19;;;;;;;13.50;9.20;;;;;;;21.70;65.39;98973.44;131169;1253;107961;-81
2023/10/14 12:37:28;;;;;;;10.60;6.90;;;;;;;21.66;65.06;98973.41;131190;1261;108658;-80
2023/10/14 12:40:36;;;;;;;9.20;6.00;;;;;;;21.57;63.64;98981.74;131340;1253;105589;-80
2023/10/14 12:43:42;;;;;;;8.60;5.60;;;;;;;21.48;64.55;98975.02;131259;1254;106842;-80
2023/10/14 12:46:48;;;;;;;9.80;5.80;;;;;;;21.35;64.08;98980.62;131335;1253;109455;-80
2023/10/14 12:49:54;;;;;;;9.10;6.30;;;;;;;21.22;64.71;98987.25;131276;1251;106671;-80
2023/10/14 12:53:03;;;;;;;9.80;6.10;;;;;;;21.08;64.55;98986.39;131240;1253;107876;-80
2023/10/14 12:56:09;;;;;;;9.50;5.90;;;;;;;20.95;64.61;98983.36;131169;1253;108459;-80
2023/10/14 12:59:16;;;;;;;8.90;6.00;;;;;;;20.82;64.65;98984.06;131207;1254;107938;-80
2023/10/14 13:02:22;;;;;;;9.00;4.90;;;;;;;20.69;64.39;98988.52;131205;1253;107385;-80
2023/10/14 13:05:29;;;;;;;5.30;3.70;;;;;;;20.54;63.63;98991.85;131151;1256;108690;-80
2023/10/14 13:08:36;;;;;;;6.30;3.70;;;;;;;20.39;63.40;98994.29;131239;1254;106759;-79
2023/10/14 13:11:43;;;;;;;5.00;2.70;;;;;;;20.29;63.47;98995.76;131261;1256;108009;-81
2023/10/14 13:14:49;;;;;;;3.50;2.40;;;;;;;20.17;62.68;98998.98;131272;1260;107933;-80
2023/10/14 13:17:57;;;;;;;4.30;2.00;;;;;;;20.04;62.35;99008.30;131002;1253;106581;-80
2023/10/14 13:21:05;;;;;;;3.80;1.90;;;;;;;19.90;62.98;99009.86;131221;1250;108434;-77
2023/10/14 13:24:12;;;;;;;5.30;2.20;;;;;;;19.78;63.29;99016.58;131064;1264;106793;-79
2023/10/14 13:27:20;;;;;;;3.60;2.00;;;;;;;19.67;63.52;99024.70;130984;1263;108209;-82
2023/10/14 13:30:26;;;;;;;4.30;2.30;;;;;;;19.57;63.53;99023.96;131170;1253;106440;-81
2023/10/14 13:33:32;;;;;;;2.60;2.20;;;;;;;19.46;63.86;99031.45;131224;1252;107502;-80
2023/10/14 13:36:38;;;;;;;5.10;2.50;;;;;;;19.39;64.16;99040.51;131162;1263;107605;-80
2023/10/14 13:39:43;;;;;;;5.20;2.60;;;;;;;19.31;64.30;99048.95;131211;1256;107555;-80
2023/10/14 13:42:50;;;;;;;5.30;2.90;;;;;;;19.21;64.79;99057.09;131193;1255;106975;-79
2023/10/14 13:45:55;;;;;;;6.80;2.60;;;;;;;19.12;65.25;99082.73;131174;1258;107868;-80
2023/10/14 13:49:02;;;;;;;5.90;2.40;;;;;;;18.94;67.90;99096.89;131083;1257;107656;-80
2023/10/14 13:52:08;;;;;;;6.10;4.70;;;;;;;18.72;68.25;99110.67;131082;1253;107076;-81
2023/10/14 13:55:14;;;;;;;6.40;2.90;;;;;;;18.49;70.59;99125.67;131107;1256;108801;-81
2023/10/14 13:58:21;;;;;;;9.60;6.50;;;;;;;18.14;73.18;99128.96;131039;1256;107758;-80
2023/10/14 14:01:28;;;;;;;3.50;2.50;;;;;;;17.84;73.39;99139.08;131644;1254;107668;-81
2023/10/14 14:04:34;;;;;;;10.70;5.70;;;;;;;17.53;76.63;99135.98;132423;1255;107820;-82
2023/10/14 14:07:39;;;;;;;30.30;13.50;;;;;;;17.29;76.77;99142.89;131472;1253;108636;-81
2023/10/14 14:10:47;;;;;;;12.30;7.90;;;;;;;17.14;76.34;99130.89;131488;1254;107887;-80
2023/10/14 14:13:57;;;;;;;19.60;15.40;;;;;;;17.15;75.17;99134.60;131651;1253;108626;-82
2023/10/14 14:17:04;;;;;;;69.40;51.90;;;;;;;17.22;75.68;99124.88;132815;1251;106545;-83
2023/10/14 14:20:15;;;;;;;60.40;43.80;;;;;;;17.26;75.53;99125.61;132076;1253;108162;-79